sensor_id;sensor_type;location;lat;lon;timestamp;pressure;altitude;pressure_sealevel;temperature;humidity
19789;BME280;10054;59.332;18.244;2023-07-13T00:01:11;99961.07;;;16.75;100.00
19789;BME280;10054;59.332;18.244;2023-07-13T00:03:39;99956.05;;;16.72;100.00
19789;BME280;10054;59.332;18.244;2023-07-13T00:06:08;99955.52;;;16.69;100.00
19789;BME280;10054;59.332;18.244;2023-07-13T00:08:37;99960.65;;;16.66;100.00
19789;BME280;10054;59.332;18.244;2023-07-13T00:11:06;99957.30;;;16.64;100.00
19789;BME280;10054;59.332;18.244;2023-07-13T00:13:35;99958.41;;;16.62;100.00
19789;BME280;10054;59.332;18.244;2023-07-13T00:16:05;99961.86;;;16.58;100.00
19789;BME280;10054;59.332;18.244;2023-07-13T00:18:35;99961.67;;;16.56;100.00
19789;BME280;10054;59.332;18.244;2023-07-13T00:21:05;99950.97;;;16.52;100.00
19789;BME280;10054;59.332;18.244;2023-07-13T00:23:39;99959.26;;;16.49;100.00
19789;BME280;10054;59.332;18.244;2023-07-13T00:26:10;99958.72;;;16.45;100.00
19789;BME280;10054;59.332;18.244;2023-07-13T00:28:40;99961.68;;;16.42;100.00
19789;BME280;10054;59.332;18.244;2023-07-13T00:31:11;99956.16;;;16.39;100.00
19789;BME280;10054;59.332;18.244;2023-07-13T00:33:41;99955.63;;;16.36;100.00
19789;BME280;10054;59.332;18.244;2023-07-13T00:36:11;99950.63;;;16.33;100.00
19789;BME280;10054;59.332;18.244;2023-07-13T00:38:40;99945.45;;;16.31;100.00
19789;BME280;10054;59.332;18.244;2023-07-13T00:41:10;99948.91;;;16.28;100.00
19789;BME280;10054;59.332;18.244;2023-07-13T00:43:39;99949.20;;;16.25;100.00
19789;BME280;10054;59.332;18.244;2023-07-13T00:46:14;99945.80;;;16.19;100.00
19789;BME280;10054;59.332;18.244;2023-07-13T00:48:43;99951.91;;;16.15;100.00
19789;BME280;10054;59.332;18.244;2023-07-13T00:51:15;99955.70;;;16.13;100.00
19789;BME280;10054;59.332;18.244;2023-07-13T00:53:44;99957.82;;;16.09;100.00
19789;BME280;10054;59.332;18.244;2023-07-13T00:56:14;99958.45;;;16.07;100.00
19789;BME280;10054;59.332;18.244;2023-07-13T00:58:45;99962.11;;;16.06;100.00
19789;BME280;10054;59.332;18.244;2023-07-13T01:01:14;99961.91;;;16.03;100.00
19789;BME280;10054;59.332;18.244;2023-07-13T01:03:43;99969.54;;;16.02;100.00
19789;BME280;10054;59.332;18.244;2023-07-13T01:06:12;99968.21;;;16.02;100.00
19789;BME280;10054;59.332;18.244;2023-07-13T01:08:41;99972.55;;;16.03;100.00
19789;BME280;10054;59.332;18.244;2023-07-13T01:11:10;99966.73;;;16.04;100.00
19789;BME280;10054;59.332;18.244;2023-07-13T01:13:39;99963.23;;;16.03;100.00
19789;BME280;10054;59.332;18.244;2023-07-13T01:16:24;99966.73;;;16.04;100.00
19789;BME280;10054;59.332;18.244;2023-07-13T01:18:42;99964.22;;;16.02;100.00
19789;BME280;10054;59.332;18.244;2023-07-13T01:21:11;99964.86;;;16.00;100.00
19789;BME280;10054;59.332;18.244;2023-07-13T01:23:41;99970.67;;;16.00;100.00
19789;BME280;10054;59.332;18.244;2023-07-13T01:26:11;99965.98;;;15.98;100.00
19789;BME280;10054;59.332;18.244;2023-07-13T01:28:40;99964.80;;;15.96;100.00
19789;BME280;10054;59.332;18.244;2023-07-13T01:31:09;99968.45;;;15.95;100.00
19789;BME280;10054;59.332;18.244;2023-07-13T01:33:39;99978.40;;;15.93;100.00
19789;BME280;10054;59.332;18.244;2023-07-13T01:36:09;99973.56;;;15.93;100.00
19789;BME280;10054;59.332;18.244;2023-07-13T01:38:38;99975.53;;;15.91;100.00
19789;BME280;10054;59.332;18.244;2023-07-13T01:41:08;99974.55;;;15.92;100.00
19789;BME280;10054;59.332;18.244;2023-07-13T01:43:37;99972.23;;;15.93;100.00
19789;BME280;10054;59.332;18.244;2023-07-13T01:46:07;99970.56;;;15.92;100.00
19789;BME280;10054;59.332;18.244;2023-07-13T01:48:36;99981.20;;;15.92;100.00
19789;BME280;10054;59.332;18.244;2023-07-13T01:51:05;99982.05;;;15.92;100.00
19789;BME280;10054;59.332;18.244;2023-07-13T01:53:34;99981.90;;;15.94;100.00
19789;BME280;10054;59.332;18.244;2023-07-13T01:56:03;99976.58;;;15.94;100.00
19789;BME280;10054;59.332;18.244;2023-07-13T01:58:32;99976.58;;;15.94;100.00
19789;BME280;10054;59.332;18.244;2023-07-13T02:01:01;99970.07;;;15.92;100.00
19789;BME280;10054;59.332;18.244;2023-07-13T02:03:30;99975.88;;;15.92;100.00
19789;BME280;10054;59.332;18.244;2023-07-13T02:05:59;99975.05;;;15.91;100.00
19789;BME280;10054;59.332;18.244;2023-07-13T02:08:27;99986.87;;;15.93;100.00
19789;BME280;10054;59.332;18.244;2023-07-13T02:10:56;99986.67;;;15.90;100.00
19789;BME280;10054;59.332;18.244;2023-07-13T02:13:25;99990.80;;;15.89;100.00
19789;BME280;10054;59.332;18.244;2023-07-13T02:15:54;100001.30;;;15.90;100.00
19789;BME280;10054;59.332;18.244;2023-07-13T02:18:23;99991.84;;;15.92;100.00
19789;BME280;10054;59.332;18.244;2023-07-13T02:20:52;99981.20;;;15.92;100.00
19789;BME280;10054;59.332;18.244;2023-07-13T02:23:21;99982.39;;;15.93;100.00
19789;BME280;10054;59.332;18.244;2023-07-13T02:25:53;99973.91;;;15.94;100.00
19789;BME280;10054;59.332;18.244;2023-07-13T02:28:20;99972.23;;;15.93;100.00
19789;BME280;10054;59.332;18.244;2023-07-13T02:30:50;99983.86;;;15.92;100.00
19789;BME280;10054;59.332;18.244;2023-07-13T02:33:19;99989.82;;;15.90;100.00
19789;BME280;10054;59.332;18.244;2023-07-13T02:35:48;99988.63;;;15.88;100.00
19789;BME280;10054;59.332;18.244;2023-07-13T02:38:18;99989.27;;;15.86;100.00
19789;BME280;10054;59.332;18.244;2023-07-13T02:40:48;99990.25;;;15.85;100.00
19789;BME280;10054;59.332;18.244;2023-07-13T02:43:17;99991.73;;;15.84;100.00
19789;BME280;10054;59.332;18.244;2023-07-13T02:45:47;100001.88;;;15.84;100.00
19789;BME280;10054;59.332;18.244;2023-07-13T02:48:18;100004.88;;;15.85;100.00
19789;BME280;10054;59.332;18.244;2023-07-13T02:50:46;100000.05;;;15.85;100.00
19789;BME280;10054;59.332;18.244;2023-07-13T02:53:15;100000.11;;;15.89;100.00
19789;BME280;10054;59.332;18.244;2023-07-13T02:55:45;99993.81;;;15.90;100.00
19789;BME280;10054;59.332;18.244;2023-07-13T02:58:14;100004.80;;;15.91;100.00
19789;BME280;10054;59.332;18.244;2023-07-13T03:00:48;99997.16;;;15.92;100.00
19789;BME280;10054;59.332;18.244;2023-07-13T03:03:18;99997.52;;;15.93;100.00
19789;BME280;10054;59.332;18.244;2023-07-13T03:05:47;100001.84;;;15.94;100.00
19789;BME280;10054;59.332;18.244;2023-07-13T03:08:18;100004.51;;;15.94;100.00
19789;BME280;10054;59.332;18.244;2023-07-13T03:10:47;100007.80;;;15.92;100.00
19789;BME280;10054;59.332;18.244;2023-07-13T03:13:16;100016.97;;;15.93;100.00
19789;BME280;10054;59.332;18.244;2023-07-13T03:15:48;100015.84;;;15.96;100.00
19789;BME280;10054;59.332;18.244;2023-07-13T03:18:17;100016.25;;;16.01;100.00
19789;BME280;10054;59.332;18.244;2023-07-13T03:20:46;100023.45;;;16.04;100.00
19789;BME280;10054;59.332;18.244;2023-07-13T03:23:15;100010.69;;;16.08;100.00
19789;BME280;10054;59.332;18.244;2023-07-13T03:25:44;100020.70;;;16.10;100.00
19789;BME280;10054;59.332;18.244;2023-07-13T03:28:13;100027.20;;;16.12;100.00
19789;BME280;10054;59.332;18.244;2023-07-13T03:30:43;100025.73;;;16.13;100.00
19789;BME280;10054;59.332;18.244;2023-07-13T03:33:11;100023.16;;;16.07;100.00
19789;BME280;10054;59.332;18.244;2023-07-13T03:35:41;100023.30;;;16.06;100.00
19789;BME280;10054;59.332;18.244;2023-07-13T03:38:10;100026.66;;;16.08;100.00
19789;BME280;10054;59.332;18.244;2023-07-13T03:40:40;100031.34;;;16.10;100.00
19789;BME280;10054;59.332;18.244;2023-07-13T03:43:09;100026.56;;;16.14;100.00
19789;BME280;10054;59.332;18.244;2023-07-13T03:45:41;100026.77;;;16.16;100.00
19789;BME280;10054;59.332;18.244;2023-07-13T03:48:10;100026.97;;;16.19;100.00
19789;BME280;10054;59.332;18.244;2023-07-13T03:50:39;100024.16;;;16.20;100.00
19789;BME280;10054;59.332;18.244;2023-07-13T03:53:08;100030.58;;;16.27;100.00
19789;BME280;10054;59.332;18.244;2023-07-13T03:55:37;100032.74;;;16.28;100.00
19789;BME280;10054;59.332;18.244;2023-07-13T03:58:29;100036.47;;;16.35;100.00
19789;BME280;10054;59.332;18.244;2023-07-13T04:01:00;100034.00;;;16.37;100.00
19789;BME280;10054;59.332;18.244;2023-07-13T04:03:30;100033.56;;;16.42;100.00
19789;BME280;10054;59.332;18.244;2023-07-13T04:06:01;100038.25;;;16.44;100.00
19789;BME280;10054;59.332;18.244;2023-07-13T04:08:33;100040.13;;;16.48;100.00
19789;BME280;10054;59.332;18.244;2023-07-13T04:11:03;100036.67;;;16.51;100.00
19789;BME280;10054;59.332;18.244;2023-07-13T04:13:32;100033.22;;;16.55;100.00
19789;BME280;10054;59.332;18.244;2023-07-13T04:16:01;100036.92;;;16.58;100.00
19789;BME280;10054;59.332;18.244;2023-07-13T04:18:30;100031.06;;;16.82;100.00
19789;BME280;10054;59.332;18.244;2023-07-13T04:20:59;100039.17;;;17.12;100.00
19789;BME280;10054;59.332;18.244;2023-07-13T04:23:28;100046.10;;;17.22;100.00
19789;BME280;10054;59.332;18.244;2023-07-13T04:25:57;100047.44;;;17.22;100.00
19789;BME280;10054;59.332;18.244;2023-07-13T04:28:26;100051.58;;;17.21;100.00
19789;BME280;10054;59.332;18.244;2023-07-13T04:30:58;100044.92;;;17.21;100.00
19789;BME280;10054;59.332;18.244;2023-07-13T04:33:27;100044.66;;;17.28;100.00
19789;BME280;10054;59.332;18.244;2023-07-13T04:35:57;100051.96;;;17.44;100.00
19789;BME280;10054;59.332;18.244;2023-07-13T04:38:29;100050.45;;;17.63;100.00
19789;BME280;10054;59.332;18.244;2023-07-13T04:41:00;100053.91;;;17.73;100.00
19789;BME280;10054;59.332;18.244;2023-07-13T04:43:30;100054.27;;;17.78;100.00
19789;BME280;10054;59.332;18.244;2023-07-13T04:46:08;100061.28;;;17.79;100.00
19789;BME280;10054;59.332;18.244;2023-07-13T04:48:38;100060.75;;;17.76;100.00
19789;BME280;10054;59.332;18.244;2023-07-13T04:51:07;100062.09;;;17.76;100.00
19789;BME280;10054;59.332;18.244;2023-07-13T04:53:36;100056.12;;;17.86;100.00
19789;BME280;10054;59.332;18.244;2023-07-13T04:56:06;100043.89;;;18.01;100.00
19789;BME280;10054;59.332;18.244;2023-07-13T04:58:35;100049.50;;;18.20;100.00
19789;BME280;10054;59.332;18.244;2023-07-13T05:01:05;100049.92;;;18.37;100.00
19789;BME280;10054;59.332;18.244;2023-07-13T05:03:34;100058.48;;;18.45;100.00
19789;BME280;10054;59.332;18.244;2023-07-13T05:06:04;100055.29;;;18.41;100.00
19789;BME280;10054;59.332;18.244;2023-07-13T05:08:34;100052.37;;;18.60;100.00
19789;BME280;10054;59.332;18.244;2023-07-13T05:11:04;100053.92;;;18.75;100.00
19789;BME280;10054;59.332;18.244;2023-07-13T05:13:34;100057.69;;;19.07;100.00
19789;BME280;10054;59.332;18.244;2023-07-13T05:16:05;100064.56;;;19.17;100.00
19789;BME280;10054;59.332;18.244;2023-07-13T05:18:35;100058.70;;;19.10;100.00
19789;BME280;10054;59.332;18.244;2023-07-13T05:21:07;100048.97;;;18.96;100.00
19789;BME280;10054;59.332;18.244;2023-07-13T05:23:37;100047.65;;;19.00;100.00
19789;BME280;10054;59.332;18.244;2023-07-13T05:26:06;100051.70;;;19.29;100.00
19789;BME280;10054;59.332;18.244;2023-07-13T05:28:36;100058.58;;;19.52;100.00
19789;BME280;10054;59.332;18.244;2023-07-13T05:31:07;100060.08;;;19.75;100.00
19789;BME280;10054;59.332;18.244;2023-07-13T05:33:36;100059.74;;;19.82;100.00
19789;BME280;10054;59.332;18.244;2023-07-13T05:36:05;100065.09;;;19.82;100.00
19789;BME280;10054;59.332;18.244;2023-07-13T05:38:35;100068.95;;;19.71;100.00
19789;BME280;10054;59.332;18.244;2023-07-13T05:41:04;100064.27;;;19.61;100.00
19789;BME280;10054;59.332;18.244;2023-07-13T05:43:34;100069.45;;;19.54;100.00
19789;BME280;10054;59.332;18.244;2023-07-13T05:46:03;100077.27;;;19.40;100.00
19789;BME280;10054;59.332;18.244;2023-07-13T05:48:32;100073.08;;;19.33;100.00
19789;BME280;10054;59.332;18.244;2023-07-13T05:51:01;100069.42;;;19.30;100.00
19789;BME280;10054;59.332;18.244;2023-07-13T05:53:30;100076.09;;;19.42;100.00
19789;BME280;10054;59.332;18.244;2023-07-13T05:55:59;100077.94;;;19.42;100.00
19789;BME280;10054;59.332;18.244;2023-07-13T05:58:28;100067.91;;;19.40;100.00
19789;BME280;10054;59.332;18.244;2023-07-13T06:01:03;100063.24;;;19.29;100.00
19789;BME280;10054;59.332;18.244;2023-07-13T06:03:31;100067.41;;;19.24;100.00
19789;BME280;10054;59.332;18.244;2023-07-13T06:06:00;100062.55;;;19.15;100.00
19789;BME280;10054;59.332;18.244;2023-07-13T06:08:29;100054.84;;;19.04;100.00
19789;BME280;10054;59.332;18.244;2023-07-13T06:11:23;100062.89;;;19.20;100.00
19789;BME280;10054;59.332;18.244;2023-07-13T06:13:48;100058.38;;;19.49;100.00
19789;BME280;10054;59.332;18.244;2023-07-13T06:16:17;100058.73;;;19.79;100.00
19789;BME280;10054;59.332;18.244;2023-07-13T06:18:48;100051.52;;;19.99;99.11
19789;BME280;10054;59.332;18.244;2023-07-13T06:21:19;100062.00;;;20.13;97.16
19789;BME280;10054;59.332;18.244;2023-07-13T06:23:50;100063.50;;;20.20;96.81
19789;BME280;10054;59.332;18.244;2023-07-13T06:26:20;100070.16;;;20.32;96.37
19789;BME280;10054;59.332;18.244;2023-07-13T06:28:49;100068.30;;;20.37;93.35
19789;BME280;10054;59.332;18.244;2023-07-13T06:31:18;100075.33;;;20.50;93.67
19789;BME280;10054;59.332;18.244;2023-07-13T06:33:47;100068.09;;;20.58;92.37
19789;BME280;10054;59.332;18.244;2023-07-13T06:36:16;100067.59;;;20.59;91.15
19789;BME280;10054;59.332;18.244;2023-07-13T06:38:45;100071.09;;;20.63;90.97
19789;BME280;10054;59.332;18.244;2023-07-13T06:41:14;100069.10;;;20.57;90.08
19789;BME280;10054;59.332;18.244;2023-07-13T06:43:42;100075.16;;;20.51;87.19
19789;BME280;10054;59.332;18.244;2023-07-13T06:46:11;100084.07;;;20.40;89.01
19789;BME280;10054;59.332;18.244;2023-07-13T06:48:42;100078.03;;;20.29;89.20
19789;BME280;10054;59.332;18.244;2023-07-13T06:51:10;100080.38;;;20.32;90.11
19789;BME280;10054;59.332;18.244;2023-07-13T06:53:39;100078.03;;;20.42;89.82
19789;BME280;10054;59.332;18.244;2023-07-13T06:56:11;100079.33;;;20.54;89.15
19789;BME280;10054;59.332;18.244;2023-07-13T06:58:40;100075.27;;;20.66;88.59
19789;BME280;10054;59.332;18.244;2023-07-13T07:01:09;100074.92;;;20.69;87.44
19789;BME280;10054;59.332;18.244;2023-07-13T07:03:38;100077.89;;;20.78;79.16
19789;BME280;10054;59.332;18.244;2023-07-13T07:06:15;100083.38;;;20.81;84.66
19789;BME280;10054;59.332;18.244;2023-07-13T07:08:44;100084.20;;;20.85;84.43
19789;BME280;10054;59.332;18.244;2023-07-13T07:11:18;100090.86;;;20.93;84.37
19789;BME280;10054;59.332;18.244;2023-07-13T07:13:47;100085.98;;;20.97;83.62
19789;BME280;10054;59.332;18.244;2023-07-13T07:16:16;100081.20;;;21.11;82.44
19789;BME280;10054;59.332;18.244;2023-07-13T07:18:45;100080.28;;;21.31;83.13
19789;BME280;10054;59.332;18.244;2023-07-13T07:21:15;100080.31;;;21.50;82.44
19789;BME280;10054;59.332;18.244;2023-07-13T07:23:44;100083.85;;;21.65;81.38
19789;BME280;10054;59.332;18.244;2023-07-13T07:26:13;100084.59;;;21.78;80.66
19789;BME280;10054;59.332;18.244;2023-07-13T07:28:41;100084.19;;;21.85;78.95
19789;BME280;10054;59.332;18.244;2023-07-13T07:31:11;100087.34;;;21.88;76.17
19789;BME280;10054;59.332;18.244;2023-07-13T07:33:40;100086.80;;;21.93;75.74
19789;BME280;10054;59.332;18.244;2023-07-13T07:36:09;100089.27;;;21.98;74.65
19789;BME280;10054;59.332;18.244;2023-07-13T07:38:39;100090.05;;;22.07;73.86
19789;BME280;10054;59.332;18.244;2023-07-13T07:41:08;100088.27;;;22.18;74.40
19789;BME280;10054;59.332;18.244;2023-07-13T07:43:38;100087.42;;;22.18;73.30
19789;BME280;10054;59.332;18.244;2023-07-13T07:46:07;100090.34;;;22.12;71.81
19789;BME280;10054;59.332;18.244;2023-07-13T07:48:36;100088.86;;;22.10;71.84
19789;BME280;10054;59.332;18.244;2023-07-13T07:51:05;100089.97;;;22.15;73.20
19789;BME280;10054;59.332;18.244;2023-07-13T07:53:33;100096.14;;;22.20;71.09
19789;BME280;10054;59.332;18.244;2023-07-13T07:56:02;100095.67;;;22.16;72.19
19789;BME280;10054;59.332;18.244;2023-07-13T07:58:31;100095.79;;;22.04;72.44
19789;BME280;10054;59.332;18.244;2023-07-13T08:01:04;100102.37;;;21.97;72.78
19789;BME280;10054;59.332;18.244;2023-07-13T08:03:33;100101.57;;;21.93;73.27
19789;BME280;10054;59.332;18.244;2023-07-13T08:06:03;100104.11;;;21.90;73.31
19789;BME280;10054;59.332;18.244;2023-07-13T08:08:32;100098.77;;;21.86;73.64
19789;BME280;10054;59.332;18.244;2023-07-13T08:11:04;100101.68;;;22.00;74.02
19789;BME280;10054;59.332;18.244;2023-07-13T08:13:32;100101.17;;;22.00;72.86
19789;BME280;10054;59.332;18.244;2023-07-13T08:16:03;100103.77;;;22.12;72.23
19789;BME280;10054;59.332;18.244;2023-07-13T08:18:33;100106.38;;;22.20;70.79
19789;BME280;10054;59.332;18.244;2023-07-13T08:21:06;100108.66;;;22.27;69.86
19789;BME280;10054;59.332;18.244;2023-07-13T08:23:36;100105.67;;;22.37;70.09
19789;BME280;10054;59.332;18.244;2023-07-13T08:26:05;100108.22;;;22.35;69.09
19789;BME280;10054;59.332;18.244;2023-07-13T08:28:34;100110.81;;;22.43;69.81
19789;BME280;10054;59.332;18.244;2023-07-13T08:31:05;100111.84;;;22.56;68.22
19789;BME280;10054;59.332;18.244;2023-07-13T08:33:36;100116.94;;;22.51;67.25
19789;BME280;10054;59.332;18.244;2023-07-13T08:36:06;100121.66;;;22.49;68.61
19789;BME280;10054;59.332;18.244;2023-07-13T08:38:35;100122.17;;;22.49;69.00
19789;BME280;10054;59.332;18.244;2023-07-13T08:41:12;100126.25;;;22.59;69.54
19789;BME280;10054;59.332;18.244;2023-07-13T08:43:45;100129.64;;;22.57;67.39
19789;BME280;10054;59.332;18.244;2023-07-13T08:46:23;100123.47;;;22.53;67.22
19789;BME280;10054;59.332;18.244;2023-07-13T08:48:59;100131.49;;;22.57;66.80
19789;BME280;10054;59.332;18.244;2023-07-13T08:54:03;100126.34;;;22.66;64.98
19789;BME280;10054;59.332;18.244;2023-07-13T08:56:32;100132.00;;;22.71;64.21
19789;BME280;10054;59.332;18.244;2023-07-13T08:59:09;100131.70;;;22.85;64.29
19789;BME280;10054;59.332;18.244;2023-07-13T09:01:56;100122.97;;;22.98;64.50
19789;BME280;10054;59.332;18.244;2023-07-13T09:04:28;100135.40;;;22.99;62.33
19789;BME280;10054;59.332;18.244;2023-07-13T09:15:31;100124.33;;;23.19;61.69
19789;BME280;10054;59.332;18.244;2023-07-13T09:18:08;100123.34;;;23.41;60.68
19789;BME280;10054;59.332;18.244;2023-07-13T09:20:47;100126.66;;;23.58;59.93
19789;BME280;10054;59.332;18.244;2023-07-13T09:23:17;100125.31;;;23.69;58.53
19789;BME280;10054;59.332;18.244;2023-07-13T09:25:49;100133.86;;;23.89;60.35
19789;BME280;10054;59.332;18.244;2023-07-13T09:28:26;100132.96;;;23.93;59.31
19789;BME280;10054;59.332;18.244;2023-07-13T09:31:33;100126.55;;;23.83;59.45
19789;BME280;10054;59.332;18.244;2023-07-13T09:33:41;100127.23;;;23.64;57.59
19789;BME280;10054;59.332;18.244;2023-07-13T09:38:49;100131.20;;;23.57;58.89
19789;BME280;10054;59.332;18.244;2023-07-13T09:44:12;100132.89;;;23.44;58.79
19789;BME280;10054;59.332;18.244;2023-07-13T09:46:52;100125.39;;;23.39;58.06
19789;BME280;10054;59.332;18.244;2023-07-13T09:49:26;100116.03;;;23.35;58.72
19789;BME280;10054;59.332;18.244;2023-07-13T09:52:04;100120.50;;;23.28;58.84
19789;BME280;10054;59.332;18.244;2023-07-13T09:54:37;100122.70;;;23.03;58.75
19789;BME280;10054;59.332;18.244;2023-07-13T09:57:22;100125.17;;;22.83;59.70
19789;BME280;10054;59.332;18.244;2023-07-13T09:59:49;100136.31;;;22.76;60.17
19789;BME280;10054;59.332;18.244;2023-07-13T10:02:32;100131.54;;;22.68;60.12
19789;BME280;10054;59.332;18.244;2023-07-13T10:05:10;100132.52;;;22.56;58.57
19789;BME280;10054;59.332;18.244;2023-07-13T10:07:38;100140.58;;;22.56;59.68
19789;BME280;10054;59.332;18.244;2023-07-13T10:10:20;100137.11;;;22.66;59.95
19789;BME280;10054;59.332;18.244;2023-07-13T10:12:49;100135.39;;;22.69;59.75
19789;BME280;10054;59.332;18.244;2023-07-13T10:15:25;100136.09;;;22.67;59.52
19789;BME280;10054;59.332;18.244;2023-07-13T10:17:51;100135.02;;;22.57;59.66
19789;BME280;10054;59.332;18.244;2023-07-13T10:20:22;100133.16;;;22.58;59.55
19789;BME280;10054;59.332;18.244;2023-07-13T10:23:05;100130.24;;;22.63;57.97
19789;BME280;10054;59.332;18.244;2023-07-13T10:25:37;100138.89;;;22.88;58.73
19789;BME280;10054;59.332;18.244;2023-07-13T10:28:30;100131.81;;;23.13;56.33
19789;BME280;10054;59.332;18.244;2023-07-13T10:31:01;100132.83;;;23.37;56.36
19789;BME280;10054;59.332;18.244;2023-07-13T10:33:31;100131.78;;;23.64;56.00
19789;BME280;10054;59.332;18.244;2023-07-13T10:36:15;100131.85;;;23.70;55.50
19789;BME280;10054;59.332;18.244;2023-07-13T10:38:44;100137.01;;;23.82;56.25
19789;BME280;10054;59.332;18.244;2023-07-13T10:41:19;100134.23;;;23.97;55.51
19789;BME280;10054;59.332;18.244;2023-07-13T10:43:51;100135.75;;;24.17;55.56
19789;BME280;10054;59.332;18.244;2023-07-13T10:46:22;100136.39;;;24.30;54.37
19789;BME280;10054;59.332;18.244;2023-07-13T10:48:58;100138.42;;;24.38;54.14
19789;BME280;10054;59.332;18.244;2023-07-13T10:51:25;100145.66;;;24.48;52.92
19789;BME280;10054;59.332;18.244;2023-07-13T10:54:15;100138.92;;;24.55;53.28
19789;BME280;10054;59.332;18.244;2023-07-13T10:56:46;100134.35;;;24.49;53.01
19789;BME280;10054;59.332;18.244;2023-07-13T10:59:23;100134.53;;;24.30;52.41
19789;BME280;10054;59.332;18.244;2023-07-13T11:01:57;100132.74;;;24.27;53.62
19789;BME280;10054;59.332;18.244;2023-07-13T11:04:29;100135.05;;;24.30;52.78
19789;BME280;10054;59.332;18.244;2023-07-13T11:06:59;100127.87;;;24.26;51.12
19789;BME280;10054;59.332;18.244;2023-07-13T11:09:32;100132.93;;;24.14;51.63
19789;BME280;10054;59.332;18.244;2023-07-13T11:17:38;100135.02;;;23.80;52.02
19789;BME280;10054;59.332;18.244;2023-07-13T11:22:47;100135.02;;;23.91;51.60
19789;BME280;10054;59.332;18.244;2023-07-13T11:25:27;100132.83;;;24.01;51.77
19789;BME280;10054;59.332;18.244;2023-07-13T11:30:49;100136.63;;;24.24;51.75
19789;BME280;10054;59.332;18.244;2023-07-13T11:33:21;100135.37;;;24.31;51.51
19789;BME280;10054;59.332;18.244;2023-07-13T11:35:58;100140.83;;;24.27;51.88
19789;BME280;10054;59.332;18.244;2023-07-13T11:38:41;100140.04;;;24.22;51.86
19789;BME280;10054;59.332;18.244;2023-07-13T11:41:22;100142.09;;;24.20;51.82
19789;BME280;10054;59.332;18.244;2023-07-13T11:44:02;100144.98;;;24.18;51.62
19789;BME280;10054;59.332;18.244;2023-07-13T11:46:27;100134.91;;;24.16;51.01
19789;BME280;10054;59.332;18.244;2023-07-13T11:48:56;100139.62;;;24.08;51.39
19789;BME280;10054;59.332;18.244;2023-07-13T11:51:33;100136.21;;;24.10;51.40
19789;BME280;10054;59.332;18.244;2023-07-13T11:54:15;100133.50;;;24.20;51.16
19789;BME280;10054;59.332;18.244;2023-07-13T11:56:37;100138.63;;;24.37;51.78
19789;BME280;10054;59.332;18.244;2023-07-13T11:59:07;100128.20;;;24.44;50.83
19789;BME280;10054;59.332;18.244;2023-07-13T12:01:43;100138.79;;;24.46;50.68
19789;BME280;10054;59.332;18.244;2023-07-13T12:04:32;100133.75;;;24.36;50.83
19789;BME280;10054;59.332;18.244;2023-07-13T12:07:04;100133.58;;;24.27;51.32
19789;BME280;10054;59.332;18.244;2023-07-13T12:09:28;100132.73;;;24.16;51.56
19789;BME280;10054;59.332;18.244;2023-07-13T12:11:58;100137.56;;;24.10;51.56
19789;BME280;10054;59.332;18.244;2023-07-13T12:14:28;100131.55;;;23.97;51.55
19789;BME280;10054;59.332;18.244;2023-07-13T12:16:57;100137.06;;;23.89;52.58
19789;BME280;10054;59.332;18.244;2023-07-13T12:19:28;100137.30;;;23.77;52.56
19789;BME280;10054;59.332;18.244;2023-07-13T12:21:58;100134.41;;;23.68;52.56
19789;BME280;10054;59.332;18.244;2023-07-13T12:24:28;100139.98;;;23.55;53.06
19789;BME280;10054;59.332;18.244;2023-07-13T12:27:02;100135.84;;;23.49;53.32
19789;BME280;10054;59.332;18.244;2023-07-13T12:29:34;100141.67;;;23.42;53.86
19789;BME280;10054;59.332;18.244;2023-07-13T12:32:08;100137.69;;;23.38;53.96
19789;BME280;10054;59.332;18.244;2023-07-13T12:34:49;100136.54;;;23.36;53.83
19789;BME280;10054;59.332;18.244;2023-07-13T12:37:08;100137.18;;;23.38;54.17
19789;BME280;10054;59.332;18.244;2023-07-13T12:39:46;100136.67;;;23.39;54.42
19789;BME280;10054;59.332;18.244;2023-07-13T12:42:24;100132.13;;;23.39;53.87
19789;BME280;10054;59.332;18.244;2023-07-13T12:45:24;100128.59;;;23.39;53.56
19789;BME280;10054;59.332;18.244;2023-07-13T12:47:41;100132.52;;;23.47;53.61
19789;BME280;10054;59.332;18.244;2023-07-13T12:50:14;100132.30;;;23.63;54.42
19789;BME280;10054;59.332;18.244;2023-07-13T12:52:43;100134.89;;;23.78;54.02
19789;BME280;10054;59.332;18.244;2023-07-13T12:55:16;100132.84;;;23.90;53.27
19789;BME280;10054;59.332;18.244;2023-07-13T12:57:55;100125.31;;;24.07;53.46
19789;BME280;10054;59.332;18.244;2023-07-13T13:00:31;100122.15;;;24.14;52.43
19789;BME280;10054;59.332;18.244;2023-07-13T13:03:06;100132.27;;;24.23;52.16
19789;BME280;10054;59.332;18.244;2023-07-13T13:05:35;100123.23;;;24.31;51.32
19789;BME280;10054;59.332;18.244;2023-07-13T13:08:05;100123.72;;;24.41;51.29
19789;BME280;10054;59.332;18.244;2023-07-13T13:10:35;100119.52;;;24.49;50.94
19789;BME280;10054;59.332;18.244;2023-07-13T13:13:03;100121.43;;;24.62;50.68
19789;BME280;10054;59.332;18.244;2023-07-13T13:15:32;100118.77;;;24.68;49.38
19789;BME280;10054;59.332;18.244;2023-07-13T13:18:01;100121.70;;;24.73;48.97
19789;BME280;10054;59.332;18.244;2023-07-13T13:20:30;100117.63;;;24.67;48.36
19789;BME280;10054;59.332;18.244;2023-07-13T13:22:59;100117.55;;;24.53;47.17
19789;BME280;10054;59.332;18.244;2023-07-13T13:25:28;100109.45;;;24.47;48.19